sensor_id;sensor_type;location;lat;lon;timestamp;P1;durP1;ratioP1;P2;durP2;ratioP2
39242;SDS011;29823;47.404;8.566;2023-02-07T00:01:18;23.63;;;11.35;;
39242;SDS011;29823;47.404;8.566;2023-02-07T00:03:47;18.15;;;10.40;;
39242;SDS011;29823;47.404;8.566;2023-02-07T00:06:16;21.23;;;10.90;;
39242;SDS011;29823;47.404;8.566;2023-02-07T00:08:46;24.65;;;10.30;;
39242;SDS011;29823;47.404;8.566;2023-02-07T00:11:16;17.40;;;10.07;;
39242;SDS011;29823;47.404;8.566;2023-02-07T00:13:46;22.40;;;10.25;;
39242;SDS011;29823;47.404;8.566;2023-02-07T00:16:16;21.25;;;11.48;;
39242;SDS011;29823;47.404;8.566;2023-02-07T00:18:44;19.27;;;10.20;;
39242;SDS011;29823;47.404;8.566;2023-02-07T00:21:13;17.13;;;10.20;;
39242;SDS011;29823;47.404;8.566;2023-02-07T00:23:43;18.00;;;10.43;;
39242;SDS011;29823;47.404;8.566;2023-02-07T00:26:12;19.48;;;11.05;;
39242;SDS011;29823;47.404;8.566;2023-02-07T00:28:42;21.13;;;11.05;;
39242;SDS011;29823;47.404;8.566;2023-02-07T00:31:11;19.77;;;10.30;;
39242;SDS011;29823;47.404;8.566;2023-02-07T00:33:41;21.17;;;10.73;;
39242;SDS011;29823;47.404;8.566;2023-02-07T00:36:11;21.10;;;11.48;;
39242;SDS011;29823;47.404;8.566;2023-02-07T00:38:40;24.25;;;12.45;;
39242;SDS011;29823;47.404;8.566;2023-02-07T00:41:08;19.05;;;10.23;;
39242;SDS011;29823;47.404;8.566;2023-02-07T00:43:40;19.25;;;11.35;;
39242;SDS011;29823;47.404;8.566;2023-02-07T00:46:10;25.67;;;11.32;;
39242;SDS011;29823;47.404;8.566;2023-02-07T00:48:38;18.63;;;11.20;;
39242;SDS011;29823;47.404;8.566;2023-02-07T00:51:06;18.00;;;10.63;;
39242;SDS011;29823;47.404;8.566;2023-02-07T00:53:35;19.23;;;11.63;;
39242;SDS011;29823;47.404;8.566;2023-02-07T00:56:03;17.85;;;10.70;;
39242;SDS011;29823;47.404;8.566;2023-02-07T00:58:31;20.10;;;10.80;;
39242;SDS011;29823;47.404;8.566;2023-02-07T01:01:01;21.27;;;11.18;;
39242;SDS011;29823;47.404;8.566;2023-02-07T01:03:30;19.90;;;11.05;;
39242;SDS011;29823;47.404;8.566;2023-02-07T01:05:58;22.05;;;10.00;;
39242;SDS011;29823;47.404;8.566;2023-02-07T01:08:26;21.42;;;11.30;;
39242;SDS011;29823;47.404;8.566;2023-02-07T01:10:54;18.60;;;11.10;;
39242;SDS011;29823;47.404;8.566;2023-02-07T01:13:22;22.23;;;11.57;;
39242;SDS011;29823;47.404;8.566;2023-02-07T01:15:50;23.38;;;11.02;;
39242;SDS011;29823;47.404;8.566;2023-02-07T01:18:17;24.13;;;11.60;;
39242;SDS011;29823;47.404;8.566;2023-02-07T01:20:47;20.30;;;11.43;;
39242;SDS011;29823;47.404;8.566;2023-02-07T01:23:15;18.48;;;11.07;;
39242;SDS011;29823;47.404;8.566;2023-02-07T01:25:45;18.95;;;11.07;;
39242;SDS011;29823;47.404;8.566;2023-02-07T01:28:13;18.60;;;10.13;;
39242;SDS011;29823;47.404;8.566;2023-02-07T01:30:42;19.50;;;11.40;;
39242;SDS011;29823;47.404;8.566;2023-02-07T01:33:10;19.13;;;10.80;;
39242;SDS011;29823;47.404;8.566;2023-02-07T01:35:38;22.15;;;11.52;;
39242;SDS011;29823;47.404;8.566;2023-02-07T01:38:07;20.40;;;10.98;;
39242;SDS011;29823;47.404;8.566;2023-02-07T01:40:35;18.02;;;10.40;;
39242;SDS011;29823;47.404;8.566;2023-02-07T01:43:04;21.45;;;10.68;;
39242;SDS011;29823;47.404;8.566;2023-02-07T01:45:33;20.90;;;11.00;;
39242;SDS011;29823;47.404;8.566;2023-02-07T01:48:04;20.35;;;11.05;;
39242;SDS011;29823;47.404;8.566;2023-02-07T01:50:34;23.20;;;11.23;;
39242;SDS011;29823;47.404;8.566;2023-02-07T01:53:03;17.08;;;10.48;;
39242;SDS011;29823;47.404;8.566;2023-02-07T01:55:35;18.35;;;10.75;;
39242;SDS011;29823;47.404;8.566;2023-02-07T01:58:05;19.05;;;10.68;;
39242;SDS011;29823;47.404;8.566;2023-02-07T02:00:34;20.13;;;11.43;;
39242;SDS011;29823;47.404;8.566;2023-02-07T02:03:03;21.55;;;10.73;;
39242;SDS011;29823;47.404;8.566;2023-02-07T02:05:32;23.55;;;12.45;;
39242;SDS011;29823;47.404;8.566;2023-02-07T02:08:03;19.90;;;11.48;;
39242;SDS011;29823;47.404;8.566;2023-02-07T02:10:41;24.85;;;12.68;;
39242;SDS011;29823;47.404;8.566;2023-02-07T02:13:22;22.35;;;12.60;;
39242;SDS011;29823;47.404;8.566;2023-02-07T02:15:59;24.40;;;12.07;;
39242;SDS011;29823;47.404;8.566;2023-02-07T02:18:42;21.40;;;11.48;;
39242;SDS011;29823;47.404;8.566;2023-02-07T02:25:04;17.52;;;10.93;;
39242;SDS011;29823;47.404;8.566;2023-02-07T02:27:55;22.52;;;11.45;;
39242;SDS011;29823;47.404;8.566;2023-02-07T02:31:00;23.48;;;11.90;;
39242;SDS011;29823;47.404;8.566;2023-02-07T02:33:44;24.80;;;12.68;;
39242;SDS011;29823;47.404;8.566;2023-02-07T02:36:21;22.63;;;10.85;;
39242;SDS011;29823;47.404;8.566;2023-02-07T02:38:56;24.85;;;12.75;;
39242;SDS011;29823;47.404;8.566;2023-02-07T02:41:30;21.30;;;11.98;;
39242;SDS011;29823;47.404;8.566;2023-02-07T02:44:06;22.30;;;12.55;;
39242;SDS011;29823;47.404;8.566;2023-02-07T02:46:39;22.92;;;12.18;;
39242;SDS011;29823;47.404;8.566;2023-02-07T02:49:10;23.58;;;12.07;;
39242;SDS011;29823;47.404;8.566;2023-02-07T02:51:41;20.77;;;11.93;;
39242;SDS011;29823;47.404;8.566;2023-02-07T02:54:28;23.77;;;12.80;;
39242;SDS011;29823;47.404;8.566;2023-02-07T02:57:00;28.10;;;12.50;;
39242;SDS011;29823;47.404;8.566;2023-02-07T03:00:06;20.58;;;11.82;;
39242;SDS011;29823;47.404;8.566;2023-02-07T03:02:49;20.98;;;12.38;;
39242;SDS011;29823;47.404;8.566;2023-02-07T03:05:30;21.23;;;11.60;;
39242;SDS011;29823;47.404;8.566;2023-02-07T03:08:10;21.77;;;12.20;;
39242;SDS011;29823;47.404;8.566;2023-02-07T03:10:50;22.52;;;13.38;;
39242;SDS011;29823;47.404;8.566;2023-02-07T03:13:25;26.45;;;14.10;;
39242;SDS011;29823;47.404;8.566;2023-02-07T03:16:01;25.95;;;13.20;;
39242;SDS011;29823;47.404;8.566;2023-02-07T03:18:39;22.40;;;12.68;;
39242;SDS011;29823;47.404;8.566;2023-02-07T03:21:17;23.05;;;13.55;;
39242;SDS011;29823;47.404;8.566;2023-02-07T03:23:51;28.00;;;13.88;;
39242;SDS011;29823;47.404;8.566;2023-02-07T03:26:21;24.95;;;13.65;;
39242;SDS011;29823;47.404;8.566;2023-02-07T03:28:51;25.52;;;13.55;;
39242;SDS011;29823;47.404;8.566;2023-02-07T03:31:21;28.60;;;14.07;;
39242;SDS011;29823;47.404;8.566;2023-02-07T03:33:52;26.20;;;14.98;;
39242;SDS011;29823;47.404;8.566;2023-02-07T03:36:27;24.95;;;13.80;;
39242;SDS011;29823;47.404;8.566;2023-02-07T03:38:59;25.10;;;13.70;;
39242;SDS011;29823;47.404;8.566;2023-02-07T03:41:28;29.42;;;14.18;;
39242;SDS011;29823;47.404;8.566;2023-02-07T03:44:00;30.17;;;14.80;;
39242;SDS011;29823;47.404;8.566;2023-02-07T03:46:33;30.92;;;15.20;;
39242;SDS011;29823;47.404;8.566;2023-02-07T03:49:02;29.92;;;14.65;;
39242;SDS011;29823;47.404;8.566;2023-02-07T03:51:34;30.75;;;14.85;;
39242;SDS011;29823;47.404;8.566;2023-02-07T03:54:02;30.95;;;14.20;;
39242;SDS011;29823;47.404;8.566;2023-02-07T03:56:30;28.23;;;15.05;;
39242;SDS011;29823;47.404;8.566;2023-02-07T03:58:58;29.42;;;15.00;;
39242;SDS011;29823;47.404;8.566;2023-02-07T04:01:26;30.20;;;15.70;;
39242;SDS011;29823;47.404;8.566;2023-02-07T04:03:54;30.00;;;15.73;;
39242;SDS011;29823;47.404;8.566;2023-02-07T04:06:22;28.95;;;15.02;;
39242;SDS011;29823;47.404;8.566;2023-02-07T04:08:51;29.10;;;16.35;;
39242;SDS011;29823;47.404;8.566;2023-02-07T04:11:19;35.42;;;16.65;;
39242;SDS011;29823;47.404;8.566;2023-02-07T04:13:47;28.38;;;15.48;;
39242;SDS011;29823;47.404;8.566;2023-02-07T04:16:15;32.28;;;15.65;;
39242;SDS011;29823;47.404;8.566;2023-02-07T04:18:43;27.83;;;15.52;;
39242;SDS011;29823;47.404;8.566;2023-02-07T04:21:11;34.90;;;17.33;;
39242;SDS011;29823;47.404;8.566;2023-02-07T04:23:39;29.33;;;15.15;;
39242;SDS011;29823;47.404;8.566;2023-02-07T04:26:08;31.75;;;16.60;;
39242;SDS011;29823;47.404;8.566;2023-02-07T04:28:36;32.47;;;16.60;;
39242;SDS011;29823;47.404;8.566;2023-02-07T04:31:04;26.98;;;15.02;;
39242;SDS011;29823;47.404;8.566;2023-02-07T04:33:31;29.83;;;16.00;;
39242;SDS011;29823;47.404;8.566;2023-02-07T04:36:00;32.75;;;16.65;;
39242;SDS011;29823;47.404;8.566;2023-02-07T04:38:30;31.58;;;16.60;;
39242;SDS011;29823;47.404;8.566;2023-02-07T04:40:58;30.88;;;15.60;;
39242;SDS011;29823;47.404;8.566;2023-02-07T04:43:30;34.60;;;17.38;;
39242;SDS011;29823;47.404;8.566;2023-02-07T04:45:59;37.23;;;18.13;;
39242;SDS011;29823;47.404;8.566;2023-02-07T04:48:27;37.50;;;16.80;;
39242;SDS011;29823;47.404;8.566;2023-02-07T04:50:55;33.08;;;16.80;;
39242;SDS011;29823;47.404;8.566;2023-02-07T04:53:23;31.95;;;15.88;;
39242;SDS011;29823;47.404;8.566;2023-02-07T04:55:51;34.05;;;17.23;;
39242;SDS011;29823;47.404;8.566;2023-02-07T04:58:22;31.70;;;16.58;;
39242;SDS011;29823;47.404;8.566;2023-02-07T05:00:52;30.77;;;17.50;;
39242;SDS011;29823;47.404;8.566;2023-02-07T05:03:20;32.85;;;17.58;;
39242;SDS011;29823;47.404;8.566;2023-02-07T05:05:48;35.55;;;17.52;;
39242;SDS011;29823;47.404;8.566;2023-02-07T05:08:18;29.75;;;17.05;;
39242;SDS011;29823;47.404;8.566;2023-02-07T05:10:50;31.73;;;17.48;;
39242;SDS011;29823;47.404;8.566;2023-02-07T05:13:18;31.52;;;17.65;;
39242;SDS011;29823;47.404;8.566;2023-02-07T05:15:46;30.95;;;16.45;;
39242;SDS011;29823;47.404;8.566;2023-02-07T05:18:16;34.35;;;17.13;;
39242;SDS011;29823;47.404;8.566;2023-02-07T05:20:44;31.95;;;17.67;;
39242;SDS011;29823;47.404;8.566;2023-02-07T05:23:12;33.25;;;17.30;;
39242;SDS011;29823;47.404;8.566;2023-02-07T05:25:40;34.00;;;18.13;;
39242;SDS011;29823;47.404;8.566;2023-02-07T05:28:08;37.72;;;17.83;;
39242;SDS011;29823;47.404;8.566;2023-02-07T05:30:36;32.17;;;18.15;;
39242;SDS011;29823;47.404;8.566;2023-02-07T05:33:04;32.30;;;18.38;;
39242;SDS011;29823;47.404;8.566;2023-02-07T05:35:33;35.53;;;18.08;;
39242;SDS011;29823;47.404;8.566;2023-02-07T05:38:03;31.20;;;15.75;;
39242;SDS011;29823;47.404;8.566;2023-02-07T05:40:33;33.83;;;18.23;;
39242;SDS011;29823;47.404;8.566;2023-02-07T05:43:02;35.63;;;18.30;;
39242;SDS011;29823;47.404;8.566;2023-02-07T05:45:30;31.85;;;17.10;;
39242;SDS011;29823;47.404;8.566;2023-02-07T05:47:58;32.88;;;17.25;;
39242;SDS011;29823;47.404;8.566;2023-02-07T05:50:26;32.47;;;17.73;;
39242;SDS011;29823;47.404;8.566;2023-02-07T05:52:55;36.60;;;18.83;;
39242;SDS011;29823;47.404;8.566;2023-02-07T05:55:23;34.15;;;17.45;;
39242;SDS011;29823;47.404;8.566;2023-02-07T05:57:51;37.75;;;18.52;;
39242;SDS011;29823;47.404;8.566;2023-02-07T06:00:19;31.20;;;17.95;;
39242;SDS011;29823;47.404;8.566;2023-02-07T06:02:47;35.33;;;19.73;;
39242;SDS011;29823;47.404;8.566;2023-02-07T06:05:16;32.40;;;18.00;;
39242;SDS011;29823;47.404;8.566;2023-02-07T06:07:45;35.72;;;18.50;;
39242;SDS011;29823;47.404;8.566;2023-02-07T06:10:14;35.35;;;17.75;;
39242;SDS011;29823;47.404;8.566;2023-02-07T06:12:42;31.50;;;17.80;;
39242;SDS011;29823;47.404;8.566;2023-02-07T06:15:10;33.35;;;18.00;;
39242;SDS011;29823;47.404;8.566;2023-02-07T06:17:38;36.50;;;19.02;;
39242;SDS011;29823;47.404;8.566;2023-02-07T06:20:07;35.95;;;19.30;;
39242;SDS011;29823;47.404;8.566;2023-02-07T06:22:35;34.78;;;18.65;;
39242;SDS011;29823;47.404;8.566;2023-02-07T06:25:03;38.28;;;19.42;;
39242;SDS011;29823;47.404;8.566;2023-02-07T06:27:35;35.40;;;18.10;;
39242;SDS011;29823;47.404;8.566;2023-02-07T06:30:03;36.33;;;19.42;;
39242;SDS011;29823;47.404;8.566;2023-02-07T06:32:31;42.25;;;21.05;;
39242;SDS011;29823;47.404;8.566;2023-02-07T06:34:59;39.90;;;20.35;;
39242;SDS011;29823;47.404;8.566;2023-02-07T06:37:27;41.28;;;18.98;;
39242;SDS011;29823;47.404;8.566;2023-02-07T06:39:55;38.72;;;20.65;;
39242;SDS011;29823;47.404;8.566;2023-02-07T06:42:23;37.35;;;19.55;;
39242;SDS011;29823;47.404;8.566;2023-02-07T06:44:52;35.85;;;19.08;;
39242;SDS011;29823;47.404;8.566;2023-02-07T06:47:20;38.05;;;19.95;;
39242;SDS011;29823;47.404;8.566;2023-02-07T06:49:48;43.80;;;20.83;;
39242;SDS011;29823;47.404;8.566;2023-02-07T06:52:15;39.10;;;19.02;;
39242;SDS011;29823;47.404;8.566;2023-02-07T06:54:43;36.95;;;18.98;;
39242;SDS011;29823;47.404;8.566;2023-02-07T06:57:11;35.88;;;19.65;;
39242;SDS011;29823;47.404;8.566;2023-02-07T06:59:39;36.60;;;19.20;;
39242;SDS011;29823;47.404;8.566;2023-02-07T07:02:09;35.00;;;19.40;;
39242;SDS011;29823;47.404;8.566;2023-02-07T07:04:38;39.50;;;20.10;;
39242;SDS011;29823;47.404;8.566;2023-02-07T07:07:06;39.40;;;21.23;;
39242;SDS011;29823;47.404;8.566;2023-02-07T07:09:33;38.53;;;20.95;;
39242;SDS011;29823;47.404;8.566;2023-02-07T07:12:01;35.22;;;19.23;;
39242;SDS011;29823;47.404;8.566;2023-02-07T07:14:31;41.47;;;19.80;;
39242;SDS011;29823;47.404;8.566;2023-02-07T07:16:59;40.97;;;20.48;;
39242;SDS011;29823;47.404;8.566;2023-02-07T07:19:28;40.85;;;19.25;;
39242;SDS011;29823;47.404;8.566;2023-02-07T07:21:56;40.63;;;20.23;;
39242;SDS011;29823;47.404;8.566;2023-02-07T07:24:26;41.65;;;21.38;;
39242;SDS011;29823;47.404;8.566;2023-02-07T07:26:53;36.83;;;19.80;;
39242;SDS011;29823;47.404;8.566;2023-02-07T07:29:21;36.25;;;19.45;;
39242;SDS011;29823;47.404;8.566;2023-02-07T07:31:49;35.88;;;19.58;;
39242;SDS011;29823;47.404;8.566;2023-02-07T07:34:17;34.83;;;19.55;;
39242;SDS011;29823;47.404;8.566;2023-02-07T07:36:46;34.28;;;18.55;;
39242;SDS011;29823;47.404;8.566;2023-02-07T07:39:14;34.90;;;18.35;;
39242;SDS011;29823;47.404;8.566;2023-02-07T07:41:43;33.58;;;17.60;;
39242;SDS011;29823;47.404;8.566;2023-02-07T07:44:11;37.90;;;19.10;;
39242;SDS011;29823;47.404;8.566;2023-02-07T07:46:38;32.83;;;17.73;;
39242;SDS011;29823;47.404;8.566;2023-02-07T07:49:06;33.10;;;17.33;;
39242;SDS011;29823;47.404;8.566;2023-02-07T07:51:35;30.92;;;17.58;;
39242;SDS011;29823;47.404;8.566;2023-02-07T07:54:04;34.22;;;18.35;;
39242;SDS011;29823;47.404;8.566;2023-02-07T07:56:32;30.52;;;16.83;;
39242;SDS011;29823;47.404;8.566;2023-02-07T07:59:00;30.88;;;16.73;;
39242;SDS011;29823;47.404;8.566;2023-02-07T08:01:37;29.95;;;16.98;;
39242;SDS011;29823;47.404;8.566;2023-02-07T08:04:05;24.95;;;15.73;;
39242;SDS011;29823;47.404;8.566;2023-02-07T08:06:33;26.52;;;16.35;;
39242;SDS011;29823;47.404;8.566;2023-02-07T08:09:00;80.72;;;40.90;;
39242;SDS011;29823;47.404;8.566;2023-02-07T08:11:30;27.65;;;16.35;;
39242;SDS011;29823;47.404;8.566;2023-02-07T08:13:58;25.75;;;15.27;;
39242;SDS011;29823;47.404;8.566;2023-02-07T08:16:25;24.52;;;15.63;;
39242;SDS011;29823;47.404;8.566;2023-02-07T08:18:53;30.98;;;16.10;;
39242;SDS011;29823;47.404;8.566;2023-02-07T08:21:21;22.88;;;15.30;;
39242;SDS011;29823;47.404;8.566;2023-02-07T08:23:51;27.55;;;16.20;;
39242;SDS011;29823;47.404;8.566;2023-02-07T08:26:20;26.27;;;15.68;;
39242;SDS011;29823;47.404;8.566;2023-02-07T08:28:49;29.77;;;17.00;;
39242;SDS011;29823;47.404;8.566;2023-02-07T08:31:17;28.40;;;16.13;;
39242;SDS011;29823;47.404;8.566;2023-02-07T08:33:46;31.95;;;17.00;;
39242;SDS011;29823;47.404;8.566;2023-02-07T08:36:14;29.67;;;16.25;;
39242;SDS011;29823;47.404;8.566;2023-02-07T08:38:42;29.08;;;16.33;;
39242;SDS011;29823;47.404;8.566;2023-02-07T08:41:09;35.00;;;19.45;;
39242;SDS011;29823;47.404;8.566;2023-02-07T08:43:37;29.70;;;17.98;;
39242;SDS011;29823;47.404;8.566;2023-02-07T08:46:07;25.33;;;15.93;;
39242;SDS011;29823;47.404;8.566;2023-02-07T08:48:35;29.42;;;17.05;;
39242;SDS011;29823;47.404;8.566;2023-02-07T08:51:03;27.60;;;16.65;;
39242;SDS011;29823;47.404;8.566;2023-02-07T08:53:32;30.75;;;16.52;;
39242;SDS011;29823;47.404;8.566;2023-02-07T08:56:00;28.98;;;17.00;;
39242;SDS011;29823;47.404;8.566;2023-02-07T08:58:28;31.83;;;16.17;;
39242;SDS011;29823;47.404;8.566;2023-02-07T09:00:56;32.90;;;16.38;;
39242;SDS011;29823;47.404;8.566;2023-02-07T09:03:25;24.10;;;15.10;;
39242;SDS011;29823;47.404;8.566;2023-02-07T09:05:55;28.23;;;16.20;;
39242;SDS011;29823;47.404;8.566;2023-02-07T09:08:24;27.63;;;15.90;;
39242;SDS011;29823;47.404;8.566;2023-02-07T09:10:52;24.63;;;15.90;;
39242;SDS011;29823;47.404;8.566;2023-02-07T09:13:20;25.90;;;16.58;;
39242;SDS011;29823;47.404;8.566;2023-02-07T09:15:51;24.90;;;15.60;;
39242;SDS011;29823;47.404;8.566;2023-02-07T09:18:20;28.05;;;15.75;;
39242;SDS011;29823;47.404;8.566;2023-02-07T09:20:49;23.83;;;14.73;;
39242;SDS011;29823;47.404;8.566;2023-02-07T09:23:17;24.75;;;16.00;;
39242;SDS011;29823;47.404;8.566;2023-02-07T09:25:45;26.48;;;15.38;;
39242;SDS011;29823;47.404;8.566;2023-02-07T09:28:14;28.08;;;15.00;;
39242;SDS011;29823;47.404;8.566;2023-02-07T09:30:43;27.17;;;15.95;;
39242;SDS011;29823;47.404;8.566;2023-02-07T09:33:13;23.63;;;15.88;;
39242;SDS011;29823;47.404;8.566;2023-02-07T09:35:42;23.73;;;14.70;;
39242;SDS011;29823;47.404;8.566;2023-02-07T09:38:14;24.45;;;14.93;;
39242;SDS011;29823;47.404;8.566;2023-02-07T09:40:43;21.50;;;14.45;;
39242;SDS011;29823;47.404;8.566;2023-02-07T09:43:16;20.52;;;14.50;;
39242;SDS011;29823;47.404;8.566;2023-02-07T09:45:58;24.45;;;16.40;;
39242;SDS011;29823;47.404;8.566;2023-02-07T09:48:35;20.60;;;14.35;;
39242;SDS011;29823;47.404;8.566;2023-02-07T09:51:11;24.65;;;15.68;;
39242;SDS011;29823;47.404;8.566;2023-02-07T09:53:42;23.35;;;15.25;;
39242;SDS011;29823;47.404;8.566;2023-02-07T09:56:13;22.98;;;15.07;;
39242;SDS011;29823;47.404;8.566;2023-02-07T09:58:45;24.75;;;15.40;;
39242;SDS011;29823;47.404;8.566;2023-02-07T10:01:20;23.48;;;15.73;;
39242;SDS011;29823;47.404;8.566;2023-02-07T10:03:54;21.83;;;13.80;;
39242;SDS011;29823;47.404;8.566;2023-02-07T10:06:32;25.55;;;14.88;;
39242;SDS011;29823;47.404;8.566;2023-02-07T10:09:07;23.25;;;15.13;;
39242;SDS011;29823;47.404;8.566;2023-02-07T10:11:41;25.17;;;15.40;;
39242;SDS011;29823;47.404;8.566;2023-02-07T10:14:22;25.30;;;16.85;;
39242;SDS011;29823;47.404;8.566;2023-02-07T10:17:03;27.47;;;16.50;;
39242;SDS011;29823;47.404;8.566;2023-02-07T10:19:58;26.80;;;15.55;;
39242;SDS011;29823;47.404;8.566;2023-02-07T10:22:34;25.88;;;14.88;;
39242;SDS011;29823;47.404;8.566;2023-02-07T10:28:14;25.60;;;15.75;;
39242;SDS011;29823;47.404;8.566;2023-02-07T10:30:59;25.13;;;16.00;;
39242;SDS011;29823;47.404;8.566;2023-02-07T10:33:32;24.88;;;15.20;;
39242;SDS011;29823;47.404;8.566;2023-02-07T10:36:05;27.55;;;16.17;;
39242;SDS011;29823;47.404;8.566;2023-02-07T10:38:41;28.23;;;16.15;;
39242;SDS011;29823;47.404;8.566;2023-02-07T10:41:25;28.73;;;16.50;;
39242;SDS011;29823;47.404;8.566;2023-02-07T10:43:59;35.53;;;16.98;;
39242;SDS011;29823;47.404;8.566;2023-02-07T10:46:27;26.40;;;15.85;;
39242;SDS011;29823;47.404;8.566;2023-02-07T10:48:56;25.50;;;15.40;;
39242;SDS011;29823;47.404;8.566;2023-02-07T10:51:24;26.58;;;16.05;;
39242;SDS011;29823;47.404;8.566;2023-02-07T10:54:06;23.52;;;15.02;;
39242;SDS011;29823;47.404;8.566;2023-02-07T10:56:39;23.27;;;14.88;;
39242;SDS011;29823;47.404;8.566;2023-02-07T11:01:58;23.52;;;13.45;;
39242;SDS011;29823;47.404;8.566;2023-02-07T11:04:32;21.95;;;14.00;;
39242;SDS011;29823;47.404;8.566;2023-02-07T11:07:03;23.92;;;13.68;;
39242;SDS011;29823;47.404;8.566;2023-02-07T11:09:32;21.88;;;14.85;;
39242;SDS011;29823;47.404;8.566;2023-02-07T11:12:13;23.80;;;15.43;;
39242;SDS011;29823;47.404;8.566;2023-02-07T11:14:49;23.70;;;14.70;;
39242;SDS011;29823;47.404;8.566;2023-02-07T11:17:27;19.33;;;13.02;;
39242;SDS011;29823;47.404;8.566;2023-02-07T11:19:57;42.50;;;19.95;;
39242;SDS011;29823;47.404;8.566;2023-02-07T11:22:29;23.88;;;14.15;;
39242;SDS011;29823;47.404;8.566;2023-02-07T11:24:59;21.80;;;13.57;;
39242;SDS011;29823;47.404;8.566;2023-02-07T11:27:34;21.65;;;15.00;;
39242;SDS011;29823;47.404;8.566;2023-02-07T11:30:04;20.08;;;14.60;;
39242;SDS011;29823;47.404;8.566;2023-02-07T11:32:35;20.20;;;15.10;;
39242;SDS011;29823;47.404;8.566;2023-02-07T11:35:05;20.60;;;15.05;;
39242;SDS011;29823;47.404;8.566;2023-02-07T11:37:35;21.48;;;15.05;;
39242;SDS011;29823;47.404;8.566;2023-02-07T11:40:16;22.92;;;15.20;;
39242;SDS011;29823;47.404;8.566;2023-02-07T11:42:50;21.15;;;15.00;;
39242;SDS011;29823;47.404;8.566;2023-02-07T11:45:25;24.23;;;15.45;;
39242;SDS011;29823;47.404;8.566;2023-02-07T11:47:54;21.70;;;14.80;;
39242;SDS011;29823;47.404;8.566;2023-02-07T11:50:25;21.42;;;15.57;;
39242;SDS011;29823;47.404;8.566;2023-02-07T11:55:26;23.27;;;15.02;;
39242;SDS011;29823;47.404;8.566;2023-02-07T11:58:00;22.55;;;14.95;;
39242;SDS011;29823;47.404;8.566;2023-02-07T12:00:32;22.98;;;15.50;;
39242;SDS011;29823;47.404;8.566;2023-02-07T12:03:05;25.58;;;15.43;;
39242;SDS011;29823;47.404;8.566;2023-02-07T12:05:36;28.13;;;18.20;;
39242;SDS011;29823;47.404;8.566;2023-02-07T12:08:09;21.45;;;14.80;;
39242;SDS011;29823;47.404;8.566;2023-02-07T12:10:40;20.40;;;14.48;;
39242;SDS011;29823;47.404;8.566;2023-02-07T12:13:13;23.67;;;14.80;;
39242;SDS011;29823;47.404;8.566;2023-02-07T12:15:46;21.55;;;14.27;;
39242;SDS011;29823;47.404;8.566;2023-02-07T12:20:53;25.20;;;16.30;;
39242;SDS011;29823;47.404;8.566;2023-02-07T12:23:25;24.42;;;15.23;;
39242;SDS011;29823;47.404;8.566;2023-02-07T12:26:12;23.90;;;14.65;;
39242;SDS011;29823;47.404;8.566;2023-02-07T12:28:48;22.83;;;14.57;;
39242;SDS011;29823;47.404;8.566;2023-02-07T12:31:40;24.05;;;15.52;;
39242;SDS011;29823;47.404;8.566;2023-02-07T12:34:17;24.90;;;15.38;;
39242;SDS011;29823;47.404;8.566;2023-02-07T12:36:53;27.42;;;16.25;;
39242;SDS011;29823;47.404;8.566;2023-02-07T12:39:26;26.20;;;16.70;;
39242;SDS011;29823;47.404;8.566;2023-02-07T12:42:11;31.42;;;16.30;;
39242;SDS011;29823;47.404;8.566;2023-02-07T12:44:51;25.63;;;16.15;;
39242;SDS011;29823;47.404;8.566;2023-02-07T12:47:24;25.38;;;15.55;;
39242;SDS011;29823;47.404;8.566;2023-02-07T12:50:07;24.37;;;15.43;;
39242;SDS011;29823;47.404;8.566;2023-02-07T12:52:48;24.98;;;15.65;;
39242;SDS011;29823;47.404;8.566;2023-02-07T12:55:27;24.90;;;15.38;;
39242;SDS011;29823;47.404;8.566;2023-02-07T12:58:13;21.73;;;15.48;;
39242;SDS011;29823;47.404;8.566;2023-02-07T13:00:55;23.80;;;15.38;;
39242;SDS011;29823;47.404;8.566;2023-02-07T13:03:33;27.60;;;15.77;;
39242;SDS011;29823;47.404;8.566;2023-02-07T13:06:14;21.63;;;14.93;;
39242;SDS011;29823;47.404;8.566;2023-02-07T13:08:50;25.55;;;16.13;;
39242;SDS011;29823;47.404;8.566;2023-02-07T13:11:26;23.15;;;15.60;;
39242;SDS011;29823;47.404;8.566;2023-02-07T13:14:15;25.73;;;16.20;;
39242;SDS011;29823;47.404;8.566;2023-02-07T13:16:57;27.25;;;16.15;;
39242;SDS011;29823;47.404;8.566;2023-02-07T13:19:35;24.70;;;16.20;;
39242;SDS011;29823;47.404;8.566;2023-02-07T13:22:11;23.70;;;15.38;;
39242;SDS011;29823;47.404;8.566;2023-02-07T13:24:51;24.90;;;15.52;;
39242;SDS011;29823;47.404;8.566;2023-02-07T13:27:20;24.48;;;16.25;;
39242;SDS011;29823;47.404;8.566;2023-02-07T13:29:50;24.80;;;15.68;;
39242;SDS011;29823;47.404;8.566;2023-02-07T13:32:21;26.20;;;15.95;;
39242;SDS011;29823;47.404;8.566;2023-02-07T13:34:52;24.27;;;16.15;;
39242;SDS011;29823;47.404;8.566;2023-02-07T13:37:27;27.20;;;15.80;;
39242;SDS011;29823;47.404;8.566;2023-02-07T13:40:04;22.60;;;15.70;;
39242;SDS011;29823;47.404;8.566;2023-02-07T13:42:50;26.52;;;16.48;;
39242;SDS011;29823;47.404;8.566;2023-02-07T13:45:25;32.13;;;17.70;;
39242;SDS011;29823;47.404;8.566;2023-02-07T13:48:01;29.00;;;16.60;;
39242;SDS011;29823;47.404;8.566;2023-02-07T13:50:35;28.70;;;16.20;;
39242;SDS011;29823;47.404;8.566;2023-02-07T13:53:15;26.58;;;15.57;;
39242;SDS011;29823;47.404;8.566;2023-02-07T13:55:51;25.75;;;15.82;;
39242;SDS011;29823;47.404;8.566;2023-02-07T14:01:50;26.63;;;15.73;;
39242;SDS011;29823;47.404;8.566;2023-02-07T14:04:21;26.27;;;16.63;;
39242;SDS011;29823;47.404;8.566;2023-02-07T14:06:56;28.52;;;16.13;;
39242;SDS011;29823;47.404;8.566;2023-02-07T14:09:31;27.92;;;16.17;;
39242;SDS011;29823;47.404;8.566;2023-02-07T14:12:02;24.27;;;15.00;;
39242;SDS011;29823;47.404;8.566;2023-02-07T14:14:33;24.23;;;15.35;;
39242;SDS011;29823;47.404;8.566;2023-02-07T14:17:05;29.52;;;15.23;;
39242;SDS011;29823;47.404;8.566;2023-02-07T14:19:49;24.23;;;15.45;;
39242;SDS011;29823;47.404;8.566;2023-02-07T14:22:20;31.63;;;18.27;;
39242;SDS011;29823;47.404;8.566;2023-02-07T14:31:11;25.67;;;16.38;;
39242;SDS011;29823;47.404;8.566;2023-02-07T14:36:37;32.08;;;17.65;;
39242;SDS011;29823;47.404;8.566;2023-02-07T14:39:19;27.67;;;16.90;;
39242;SDS011;29823;47.404;8.566;2023-02-07T14:41:59;30.77;;;16.55;;
39242;SDS011;29823;47.404;8.566;2023-02-07T14:44:36;26.73;;;16.60;;
39242;SDS011;29823;47.404;8.566;2023-02-07T14:47:07;29.55;;;15.98;;
39242;SDS011;29823;47.404;8.566;2023-02-07T14:49:45;30.45;;;17.50;;
39242;SDS011;29823;47.404;8.566;2023-02-07T14:52:21;28.73;;;16.92;;
39242;SDS011;29823;47.404;8.566;2023-02-07T14:54:51;27.45;;;17.40;;
39242;SDS011;29823;47.404;8.566;2023-02-07T14:57:28;26.08;;;16.45;;
39242;SDS011;29823;47.404;8.566;2023-02-07T15:00:04;27.02;;;16.33;;
39242;SDS011;29823;47.404;8.566;2023-02-07T15:02:50;27.48;;;16.88;;
39242;SDS011;29823;47.404;8.566;2023-02-07T15:05:21;33.88;;;17.27;;
39242;SDS011;29823;47.404;8.566;2023-02-07T15:08:04;29.80;;;16.83;;
39242;SDS011;29823;47.404;8.566;2023-02-07T15:10:36;27.80;;;16.58;;
39242;SDS011;29823;47.404;8.566;2023-02-07T15:13:16;26.85;;;16.88;;
39242;SDS011;29823;47.404;8.566;2023-02-07T15:15:49;27.27;;;16.77;;